createdAt,value
2023-12-28T00:03:18.036Z,0
2023-12-28T00:08:22.108Z,0
2023-12-28T00:13:26.313Z,0
2023-12-28T00:18:30.583Z,0
2023-12-28T00:23:34.638Z,0
2023-12-28T00:28:38.788Z,0
2023-12-28T00:33:43.086Z,0
2023-12-28T00:38:47.187Z,0
2023-12-28T00:43:51.271Z,0
2023-12-28T00:48:55.476Z,0
2023-12-28T00:53:59.569Z,0
2023-12-28T00:59:03.772Z,0
2023-12-28T01:04:08.037Z,0
2023-12-28T01:09:12.133Z,0
2023-12-28T01:14:16.232Z,0
2023-12-28T01:19:20.477Z,0
2023-12-28T01:24:24.565Z,0
2023-12-28T01:29:28.723Z,0
2023-12-28T01:34:33.051Z,0
2023-12-28T01:39:37.064Z,0
2023-12-28T01:44:41.215Z,0
2023-12-28T01:49:45.572Z,0
2023-12-28T01:54:49.570Z,0
2023-12-28T01:59:53.680Z,0
2023-12-28T02:04:57.877Z,0
2023-12-28T02:10:02.192Z,0
2023-12-28T02:15:06.150Z,0
2023-12-28T02:20:10.339Z,0
2023-12-28T02:25:14.506Z,0
2023-12-28T02:30:18.817Z,0
2023-12-28T02:35:22.819Z,0
2023-12-28T02:40:26.968Z,0
2023-12-28T02:45:31.184Z,0
2023-12-28T02:50:35.299Z,0
2023-12-28T02:55:39.490Z,0
2023-12-28T03:00:43.778Z,0
2023-12-28T03:05:47.839Z,0
2023-12-28T03:10:51.949Z,0
2023-12-28T03:15:54.291Z,0
2023-12-28T03:20:58.371Z,0
2023-12-28T03:26:02.598Z,0
2023-12-28T03:31:06.792Z,0
2023-12-28T03:36:10.865Z,0
2023-12-28T03:41:15.012Z,0
2023-12-28T03:46:19.166Z,0
2023-12-28T03:51:23.337Z,0
2023-12-28T03:56:27.514Z,0
2023-12-28T04:01:31.721Z,0
2023-12-28T04:06:35.894Z,0
2023-12-28T04:11:40.014Z,0
2023-12-28T04:16:44.174Z,0
2023-12-28T04:21:48.377Z,0
2023-12-28T04:26:52.494Z,0
2023-12-28T04:31:56.659Z,0
2023-12-28T04:37:00.870Z,0
2023-12-28T04:42:04.986Z,0
2023-12-28T04:47:09.164Z,0
2023-12-28T04:52:13.329Z,0
2023-12-28T04:57:17.516Z,0
2023-12-28T05:02:21.613Z,0
2023-12-28T05:07:25.790Z,0
2023-12-28T05:12:40.050Z,0
2023-12-28T05:17:34.145Z,0
2023-12-28T05:22:38.345Z,0
2023-12-28T05:27:42.492Z,0
2023-12-28T05:32:46.646Z,0
2023-12-28T05:37:50.769Z,0
2023-12-28T05:42:55.059Z,0
2023-12-28T05:47:59.578Z,0
2023-12-28T05:53:03.242Z,0
2023-12-28T05:58:07.429Z,0
2023-12-28T06:03:11.592Z,0
2023-12-28T06:08:15.735Z,0
2023-12-28T06:13:19.885Z,0
2023-12-28T06:18:24.150Z,0
2023-12-28T06:23:28.259Z,0
2023-12-28T06:28:32.357Z,0
2023-12-28T06:33:36.720Z,0
2023-12-28T06:38:40.689Z,0
2023-12-28T06:43:44.841Z,0
2023-12-28T06:48:49.331Z,0
2023-12-28T06:53:53.185Z,0
2023-12-28T06:58:57.393Z,0
2023-12-28T07:04:01.602Z,0
2023-12-28T07:09:05.683Z,0
2023-12-28T07:14:09.858Z,2
2023-12-28T07:19:14.097Z,5
2023-12-28T07:24:18.186Z,12
2023-12-28T07:29:22.988Z,22
2023-12-28T07:34:26.695Z,39
2023-12-28T07:39:30.650Z,65
2023-12-28T07:44:34.769Z,97
2023-12-28T07:49:39.054Z,129
2023-12-28T07:54:43.331Z,156
2023-12-28T07:59:47.287Z,179
2023-12-28T08:04:51.691Z,237
2023-12-28T08:09:55.691Z,248
2023-12-28T08:14:59.751Z,325
2023-12-28T08:20:04.077Z,413
2023-12-28T08:25:08.201Z,630
2023-12-28T08:30:12.296Z,570
2023-12-28T08:35:16.460Z,750
2023-12-28T08:40:20.593Z,627
2023-12-28T08:45:22.930Z,872
2023-12-28T08:50:27.120Z,1035
2023-12-28T08:55:31.278Z,1315
2023-12-28T09:00:35.398Z,1175
2023-12-28T09:05:39.568Z,1460
2023-12-28T09:10:43.709Z,1249
2023-12-28T09:20:52.030Z,1753
2023-12-28T09:25:56.149Z,1931
2023-12-28T09:31:00.456Z,1955
2023-12-28T09:36:04.491Z,1983
2023-12-28T09:41:08.692Z,2050
2023-12-28T09:46:12.981Z,1952
2023-12-28T09:51:18.870Z,2815
2023-12-28T09:56:21.151Z,3066
2023-12-28T10:01:25.439Z,2804
2023-12-28T10:06:29.455Z,2005
2023-12-28T10:11:33.662Z,1850
2023-12-28T10:16:37.739Z,2395
2023-12-28T10:21:41.974Z,2746
2023-12-28T10:26:46.085Z,2129
2023-12-28T10:31:50.285Z,2459
2023-12-28T10:36:54.468Z,3525
2023-12-28T10:41:58.555Z,3365
2023-12-28T10:47:02.791Z,4009
2023-12-28T10:52:06.992Z,3730
2023-12-28T10:57:11.092Z,3942
2023-12-28T11:02:15.277Z,3250
2023-12-28T11:07:19.383Z,3155
2023-12-28T11:12:23.569Z,3027
2023-12-28T11:17:27.850Z,2779
2023-12-28T11:22:31.927Z,3765
2023-12-28T11:27:36.135Z,4005
2023-12-28T11:32:40.238Z,3100
2023-12-28T11:37:44.381Z,3630
2023-12-28T11:42:48.528Z,4062
2023-12-28T11:47:52.708Z,4338
2023-12-28T11:52:56.926Z,4314
2023-12-28T11:56:03.535Z,4195
2023-12-28T12:02:09.859Z,4119
2023-12-28T12:07:14.130Z,3159
2023-12-28T12:12:18.279Z,2710
2023-12-28T12:17:22.364Z,3175
2023-12-28T12:22:29.179Z,3165
2023-12-28T12:27:30.706Z,3505
2023-12-28T12:32:34.978Z,3559
2023-12-28T12:37:39.020Z,3269
2023-12-28T12:42:43.229Z,3695
2023-12-28T12:47:47.377Z,3375
2023-12-28T12:52:51.504Z,3262
2023-12-28T12:57:55.723Z,3448
2023-12-28T13:02:59.970Z,3213
2023-12-28T13:08:03.961Z,3198
2023-12-28T13:13:08.251Z,3035
2023-12-28T13:18:12.420Z,2894
2023-12-28T13:23:16.470Z,2733
2023-12-28T13:28:20.619Z,2415
2023-12-28T13:33:24.946Z,2507
2023-12-28T13:38:27.088Z,2264
2023-12-28T13:43:31.232Z,2385
2023-12-28T13:48:35.494Z,2328
2023-12-28T13:53:39.550Z,2259
2023-12-28T13:58:43.712Z,2201
2023-12-28T14:03:47.942Z,1961
2023-12-28T14:08:52.030Z,1794
2023-12-28T14:13:56.189Z,1725
2023-12-28T14:19:00.449Z,1619
2023-12-28T14:24:04.522Z,1536
2023-12-28T14:29:08.676Z,1412
2023-12-28T14:34:13.004Z,1235
2023-12-28T14:39:16.988Z,941
2023-12-28T14:44:21.222Z,853
2023-12-28T14:49:25.413Z,865
2023-12-28T14:54:29.547Z,800
2023-12-28T14:59:33.673Z,665
2023-12-28T15:04:38.012Z,531
2023-12-28T15:09:42.040Z,420
2023-12-28T15:14:46.134Z,307
2023-12-28T15:19:48.568Z,239
2023-12-28T15:24:52.578Z,174
2023-12-28T15:29:56.729Z,119
2023-12-28T15:35:04.332Z,85
2023-12-28T15:40:05.123Z,56
2023-12-28T15:45:09.255Z,33
2023-12-28T15:50:13.725Z,18
2023-12-28T15:55:17.555Z,8
2023-12-28T16:00:21.729Z,3
2023-12-28T16:05:25.943Z,1
2023-12-28T16:10:30.043Z,0
2023-12-28T16:15:34.192Z,0
2023-12-28T16:20:38.347Z,0
2023-12-28T16:25:42.528Z,0
2023-12-28T16:30:46.721Z,0
2023-12-28T16:35:50.864Z,0
2023-12-28T16:40:54.985Z,0
2023-12-28T16:45:59.221Z,0
2023-12-28T16:51:03.363Z,0
2023-12-28T16:56:07.483Z,0
2023-12-28T17:01:09.840Z,0
2023-12-28T17:06:13.882Z,0
2023-12-28T17:11:18.063Z,0
2023-12-28T17:16:22.222Z,0
2023-12-28T17:21:26.462Z,0
2023-12-28T17:26:30.571Z,0
2023-12-28T17:31:34.793Z,0
2023-12-28T17:36:38.950Z,0
2023-12-28T17:41:43.032Z,0
2023-12-28T17:46:47.206Z,0
2023-12-28T17:51:51.381Z,0
2023-12-28T17:56:55.647Z,0
2023-12-28T18:02:00.342Z,0
2023-12-28T18:07:03.930Z,0
2023-12-28T18:17:12.193Z,0
2023-12-28T18:22:16.316Z,0
2023-12-28T18:27:20.509Z,0
2023-12-28T18:32:24.730Z,0
2023-12-28T18:37:28.833Z,0
2023-12-28T18:42:33.074Z,0
2023-12-28T18:47:35.395Z,0
2023-12-28T18:52:39.439Z,0
2023-12-28T18:57:43.596Z,0
2023-12-28T19:02:47.729Z,0
2023-12-28T19:07:51.873Z,0
2023-12-28T19:12:56.119Z,0
2023-12-28T19:18:00.557Z,0
2023-12-28T19:23:04.424Z,0
2023-12-28T19:28:08.642Z,0
2023-12-28T19:33:12.797Z,0
2023-12-28T19:38:16.871Z,0
2023-12-28T19:43:21.043Z,0
2023-12-28T19:48:25.369Z,0
2023-12-28T19:53:29.418Z,0
2023-12-28T19:58:33.521Z,0
2023-12-28T20:03:37.765Z,0
2023-12-28T20:08:41.874Z,0
2023-12-28T20:13:46.010Z,0
2023-12-28T20:18:50.490Z,0
2023-12-28T20:23:54.352Z,0
2023-12-28T20:28:56.630Z,0
2023-12-28T20:34:00.959Z,0
2023-12-28T20:39:04.965Z,0
2023-12-28T20:44:09.080Z,0
2023-12-28T20:49:13.329Z,0
2023-12-28T20:54:17.467Z,0
2023-12-28T20:59:21.628Z,0
2023-12-28T21:04:25.935Z,0
2023-12-28T21:09:29.937Z,0
2023-12-28T21:14:34.117Z,0
2023-12-28T21:19:47.010Z,0
2023-12-28T21:24:42.476Z,0
2023-12-28T21:29:46.580Z,0
2023-12-28T21:34:50.813Z,0
2023-12-28T21:39:54.957Z,0
2023-12-28T21:44:59.087Z,0
2023-12-28T21:50:03.278Z,0
2023-12-28T21:55:05.512Z,0
2023-12-28T22:00:09.656Z,0
2023-12-28T22:05:13.839Z,0
2023-12-28T22:10:18.036Z,0
2023-12-28T22:15:23.392Z,0
2023-12-28T22:20:26.298Z,0
2023-12-28T22:25:30.475Z,0
2023-12-28T22:30:34.672Z,0
2023-12-28T22:35:38.754Z,0
2023-12-28T22:40:42.934Z,0
2023-12-28T22:45:47.154Z,0
2023-12-28T22:50:51.206Z,0
2023-12-28T22:55:55.419Z,0
2023-12-28T23:00:59.689Z,0
2023-12-28T23:06:03.744Z,0
2023-12-28T23:11:07.920Z,0
2023-12-28T23:16:12.138Z,0
2023-12-28T23:21:16.228Z,0
2023-12-28T23:26:20.398Z,0
2023-12-28T23:31:25.167Z,0
2023-12-28T23:36:28.787Z,0
2023-12-28T23:41:32.886Z,0
2023-12-28T23:46:37.039Z,0
2023-12-28T23:51:41.214Z,0
2023-12-28T23:56:45.323Z,0
